Aérodrome :
LOGIN :

S'inscrire | Disclaimer

   EN    FR    IT 

 










Légende :    VFR   VFR Marginal   IFR   IFR Intensif   IFR Très Intensif
Visi : 
Plafond : 
>= 8 km
>= 3000ft
5 à 8 km
1000 à 3000 ft
1500m à 5 km
500 à 1000 ft
800 à 1500m
200 à 500 ft
< 800m
< 200 ft
Symboles :   Orages  Brouillard  Fortes neiges  Fortes précipitations  Vent > 20 kt
SIGMETs :   Divers  Orages  Givrage  Turbulence  Onde Orograph.  Cendres Volcan.






- Altitude de l'aérodrome : 194 ft
- Code IATA : LME


LFRM - Le Mans

DERNIER METAR :
  • 110330Z AUTO 27004KT 220V340 5000 -RA BR BKN006/// OVC012/// ///TCU 08/08 Q1012

METARs EXPIRÉS :
  • 110300Z AUTO VRB02KT 4700 -RA BR OVC006/// ///TCU 08/08 Q1013
  • 110230Z AUTO 21004KT 160V240 4800 -DZ BR OVC006 08/08 Q1013
  • 110200Z AUTO 20005KT 160V250 9000 -RADZ OVC007/// ///TCU 08/08 Q1013
  • 110130Z AUTO 19007KT 150V220 9999 OVC009 08/08 Q1013
  • 110100Z AUTO 19008KT 160V220 7000 -DZ OVC010 08/07 Q1014

TAF AMD TAF LFRM
Valide du 10 à 18h jusqu'au 11 à 12h UTC


101810Z 1018/1112 19012KT 9999 BKN035
TEMPO 1100/1106 4500 RA BKN008
BECMG 1104/1106 27005KT 9999 NSW SCT035 BKN045



MET'MAP, la Météo Aéronautique d'un coup d'oeil ! - Copyright ORBIFLY Décembre 2007 - Disclaimer

ORBIFLY MET'MAP TEAM :

Programmation & Développement : Alexandra Zaïnal
Sur une idée originale de : Baudouin d'Aumeries
Assistance à la programmation : Marc-Olivier Méhu
Soutien technique & logistique : Manuel Goepfert

Contact : metmap@orbifly.com




SOURCES & CREDITS :

   NOAA